createdAt,value
2018-06-01T00:00:59.181Z,3.65
2018-06-01T00:03:27.501Z,3.25
2018-06-01T00:05:55.030Z,3.55
2018-06-01T00:08:23.382Z,2.65
2018-06-01T00:10:50.914Z,2.92
2018-06-01T00:13:18.466Z,3.33
2018-06-01T00:15:45.992Z,2.90
2018-06-01T00:18:14.289Z,2.95
2018-06-01T00:20:41.816Z,3.55
2018-06-01T00:23:10.132Z,3.37
2018-06-01T00:25:37.676Z,3.45
2018-06-01T00:28:05.229Z,3.40
2018-06-01T00:30:32.760Z,2.87
2018-06-01T00:33:00.295Z,3.60
2018-06-01T00:35:27.818Z,3.42
2018-06-01T00:37:55.356Z,3.78
2018-06-01T00:40:23.647Z,3.05
2018-06-01T00:42:51.224Z,3.47
2018-06-01T00:45:18.740Z,3.53
2018-06-01T00:47:46.283Z,3.55
2018-06-01T00:50:13.807Z,3.87
2018-06-01T00:52:41.386Z,3.17
2018-06-01T00:55:20.824Z,3.50
2018-06-01T00:57:48.364Z,3.62
2018-06-01T01:00:15.886Z,3.70
2018-06-01T01:02:43.441Z,3.47
2018-06-01T01:05:10.990Z,3.42
2018-06-01T01:07:38.571Z,3.87
2018-06-01T01:10:06.879Z,3.15
2018-06-01T01:12:34.402Z,3.72
2018-06-01T01:15:01.944Z,3.42
2018-06-01T01:17:29.470Z,3.53
2018-06-01T01:19:57.020Z,4.05
2018-06-01T01:22:24.552Z,3.72
2018-06-01T01:24:52.852Z,3.62
2018-06-01T01:27:20.379Z,3.80
2018-06-01T01:29:47.913Z,3.35
2018-06-01T01:32:15.436Z,3.58
2018-06-01T01:34:42.975Z,3.37
2018-06-01T01:37:11.289Z,3.95
2018-06-01T01:39:38.832Z,3.70
2018-06-01T01:42:06.354Z,3.83
2018-06-01T01:44:33.896Z,3.23
2018-06-01T01:47:01.438Z,3.12
2018-06-01T01:49:28.987Z,3.72
2018-06-01T01:51:56.527Z,3.62
2018-06-01T01:54:24.112Z,3.17
2018-06-01T01:56:51.616Z,3.30
2018-06-01T01:59:19.926Z,3.05
2018-06-01T02:01:47.456Z,3.00
2018-06-01T02:04:15.012Z,2.73
2018-06-01T02:06:42.533Z,3.33
2018-06-01T02:09:10.072Z,3.00
2018-06-01T02:11:37.611Z,3.33
2018-06-01T02:14:05.916Z,2.80
2018-06-01T02:16:33.465Z,3.07
2018-06-01T02:19:01.007Z,3.27
2018-06-01T02:21:29.306Z,3.17
2018-06-01T02:23:56.853Z,3.27
2018-06-01T02:26:24.392Z,2.77
2018-06-01T02:28:51.920Z,3.20
2018-06-01T02:31:19.480Z,3.20
2018-06-01T02:33:47.004Z,3.33
2018-06-01T02:36:14.551Z,3.00
2018-06-01T02:38:42.862Z,3.37
2018-06-01T02:41:10.411Z,3.17
2018-06-01T02:43:37.926Z,3.40
2018-06-01T02:46:05.476Z,3.03
2018-06-01T02:48:33.036Z,4.07
2018-06-01T02:51:00.592Z,3.00
2018-06-01T02:53:28.128Z,3.10
2018-06-01T02:55:55.672Z,3.10
2018-06-01T02:58:23.205Z,3.10
2018-06-01T03:00:51.520Z,2.93
2018-06-01T03:03:19.063Z,3.30
2018-06-01T03:05:46.613Z,3.50
2018-06-01T03:08:14.146Z,3.03
2018-06-01T03:10:41.697Z,3.13
2018-06-01T03:13:09.228Z,3.60
2018-06-01T03:15:36.775Z,2.97
2018-06-01T03:18:04.291Z,3.57
2018-06-01T03:20:32.599Z,3.40
2018-06-01T03:23:00.130Z,3.53
2018-06-01T03:25:28.453Z,3.17
2018-06-01T03:27:55.996Z,2.90
2018-06-01T03:30:23.539Z,3.50
2018-06-01T03:32:51.848Z,3.53
2018-06-01T03:35:19.412Z,3.80
2018-06-01T03:37:46.944Z,3.63
2018-06-01T03:40:14.496Z,3.17
2018-06-01T03:42:42.811Z,3.93
2018-06-01T03:45:10.328Z,3.27
2018-06-01T03:47:38.652Z,3.60
2018-06-01T03:50:06.282Z,4.05
2018-06-01T03:52:34.591Z,3.70
2018-06-01T03:55:02.118Z,3.70
2018-06-01T03:57:29.675Z,4.07
2018-06-01T03:59:57.970Z,3.72
2018-06-01T04:02:25.527Z,3.97
2018-06-01T04:04:53.064Z,3.40
2018-06-01T04:07:21.384Z,4.07
2018-06-01T04:09:48.926Z,4.53
2018-06-01T04:12:16.536Z,3.57
2018-06-01T04:14:44.104Z,3.97
2018-06-01T04:17:11.672Z,3.20
2018-06-01T04:19:39.210Z,3.47
2018-06-01T04:22:06.759Z,4.30
2018-06-01T04:24:35.062Z,3.37
2018-06-01T04:27:02.617Z,3.90
2018-06-01T04:29:30.171Z,3.65
2018-06-01T04:31:57.718Z,3.40
2018-06-01T04:34:25.244Z,3.60
2018-06-01T04:36:52.841Z,3.22
2018-06-01T04:39:20.398Z,3.80
2018-06-01T04:41:47.948Z,3.25
2018-06-01T04:44:15.486Z,3.62
2018-06-01T04:46:43.036Z,3.50
2018-06-01T04:49:11.353Z,3.58
2018-06-01T04:51:38.928Z,3.50
2018-06-01T04:54:07.233Z,3.08
2018-06-01T04:56:34.757Z,4.07
2018-06-01T04:59:02.289Z,3.87
2018-06-01T05:01:29.818Z,3.67
2018-06-01T05:03:57.373Z,3.45
2018-06-01T05:06:24.972Z,3.15
2018-06-01T05:08:52.571Z,3.60
2018-06-01T05:11:20.096Z,3.65
2018-06-01T05:13:47.644Z,3.95
2018-06-01T05:16:15.960Z,3.50
2018-06-01T05:18:43.520Z,3.15
2018-06-01T05:21:11.072Z,3.20
2018-06-01T05:23:38.662Z,3.58
2018-06-01T05:26:06.189Z,3.45
2018-06-01T05:28:33.746Z,3.95
2018-06-01T05:31:01.275Z,3.53
2018-06-01T05:33:29.597Z,3.28
2018-06-01T05:35:57.127Z,4.18
2018-06-01T05:38:24.677Z,3.85
2018-06-01T05:40:52.975Z,3.35
2018-06-01T05:43:20.515Z,3.62
2018-06-01T05:45:48.808Z,3.20
2018-06-01T05:48:16.352Z,3.83
2018-06-01T05:50:44.654Z,3.87
2018-06-01T05:53:12.203Z,3.60
2018-06-01T05:55:40.483Z,4.03
2018-06-01T05:58:08.960Z,4.80
2018-06-01T06:00:37.256Z,3.95
2018-06-01T06:03:04.808Z,4.00
2018-06-01T06:05:32.336Z,3.67
2018-06-01T06:07:59.903Z,3.70
2018-06-01T06:10:28.203Z,3.95
2018-06-01T06:12:55.739Z,3.65
2018-06-01T06:15:24.069Z,3.75
2018-06-01T06:17:51.672Z,4.12
2018-06-01T06:20:19.184Z,3.60
2018-06-01T06:22:46.708Z,4.53
2018-06-01T06:25:15.020Z,5.03
2018-06-01T06:27:42.553Z,3.90
2018-06-01T06:30:10.104Z,3.65
2018-06-01T06:32:39.391Z,3.72
2018-06-01T06:35:06.935Z,3.28
2018-06-01T06:37:34.466Z,3.75
2018-06-01T06:40:02.016Z,3.92
2018-06-01T06:42:29.561Z,3.92
2018-06-01T06:44:57.108Z,3.78
2018-06-01T06:47:24.638Z,4.25
2018-06-01T06:49:52.194Z,3.72
2018-06-01T06:52:20.692Z,3.62
2018-06-01T06:54:48.254Z,2.97
2018-06-01T06:57:15.790Z,4.30
2018-06-01T06:59:43.337Z,3.40
2018-06-01T07:02:10.864Z,3.78
2018-06-01T07:04:38.399Z,3.80
2018-06-01T07:07:06.696Z,3.35
2018-06-01T07:09:34.252Z,3.70
2018-06-01T07:12:01.785Z,3.67
2018-06-01T07:14:29.348Z,3.30
2018-06-01T07:16:57.653Z,3.15
2018-06-01T07:19:25.195Z,3.05
2018-06-01T07:21:53.490Z,3.35
2018-06-01T07:24:21.184Z,3.42
2018-06-01T07:26:48.703Z,3.78
2018-06-01T08:54:14.245Z,3.90
2018-06-01T08:56:41.856Z,3.53
2018-06-01T08:59:10.452Z,3.55
2018-06-01T09:01:37.942Z,3.92
2018-06-01T09:04:05.502Z,3.85
2018-06-01T09:06:33.041Z,3.62
2018-06-01T09:09:00.650Z,3.40
2018-06-01T09:11:28.182Z,3.53
2018-06-01T09:13:56.023Z,3.00
2018-06-01T09:16:23.581Z,3.40
2018-06-01T09:18:51.922Z,2.95
2018-06-01T09:21:19.454Z,3.42
2018-06-01T09:23:47.116Z,3.30
2018-06-01T09:26:16.588Z,3.30
2018-06-01T09:28:44.115Z,3.47
2018-06-01T09:31:11.659Z,3.10
2018-06-01T09:33:39.207Z,3.45
2018-06-01T09:36:06.770Z,3.95
2018-06-01T09:38:34.301Z,3.65
2018-06-01T09:41:01.877Z,3.58
2018-06-01T09:43:29.416Z,3.47
2018-06-01T09:45:57.106Z,3.47
2018-06-01T09:48:24.636Z,3.65
2018-06-01T09:50:53.766Z,3.10
2018-06-01T09:53:21.307Z,3.62
2018-06-01T09:55:48.852Z,3.20
2018-06-01T09:58:16.392Z,4.00
2018-06-01T10:00:49.603Z,3.67
2018-06-01T10:03:17.917Z,3.53
2018-06-01T10:05:45.656Z,3.78
2018-06-01T10:08:13.187Z,3.80
2018-06-01T10:10:40.723Z,4.10
2018-06-01T10:13:08.295Z,3.85
2018-06-01T10:15:35.873Z,3.40
2018-06-01T10:18:03.399Z,4.07
2018-06-01T10:20:31.801Z,3.83
2018-06-01T10:22:59.362Z,4.30
2018-06-01T10:25:26.893Z,3.70
2018-06-01T10:27:54.452Z,4.03
2018-06-01T10:30:21.985Z,4.10
2018-06-01T10:32:49.553Z,4.12
2018-06-01T10:35:17.091Z,4.65
2018-06-01T10:37:45.728Z,4.40
2018-06-01T10:40:13.283Z,4.00
2018-06-01T10:42:40.835Z,3.70
2018-06-01T10:45:08.394Z,4.05
2018-06-01T10:47:35.934Z,4.00
2018-06-01T10:50:03.472Z,3.12
2018-06-01T10:52:31.987Z,3.17
2018-06-01T10:54:59.566Z,3.42
2018-06-01T10:57:27.108Z,3.62
2018-06-01T10:59:54.671Z,3.25
2018-06-01T11:02:22.207Z,3.37
2018-06-01T11:04:49.751Z,3.08
2018-06-01T11:07:18.057Z,3.05
2018-06-01T11:09:45.612Z,3.58
2018-06-01T11:12:13.137Z,3.12
2018-06-01T11:14:40.679Z,3.35
2018-06-01T11:17:08.208Z,3.62
2018-06-01T11:19:35.837Z,3.72
2018-06-01T11:22:03.380Z,3.28
2018-06-01T11:24:31.857Z,3.20
2018-06-01T11:26:59.395Z,4.10
2018-06-01T11:29:26.969Z,3.40
2018-06-01T11:31:54.494Z,4.20
2018-06-01T11:34:22.073Z,3.03
2018-06-01T11:36:49.607Z,3.50
2018-06-01T11:39:17.148Z,4.18
2018-06-01T11:41:44.676Z,3.72
2018-06-01T11:44:12.221Z,3.75
2018-06-01T11:46:40.262Z,3.55
2018-06-01T11:49:07.836Z,3.70
2018-06-01T11:51:36.353Z,4.28
2018-06-01T11:54:04.670Z,3.40
2018-06-01T11:56:32.230Z,3.22
2018-06-01T11:58:59.771Z,3.10
2018-06-01T12:01:27.331Z,3.92
2018-06-01T12:03:55.720Z,3.28
2018-06-01T12:06:25.216Z,3.10
2018-06-01T12:08:52.751Z,2.80
2018-06-01T12:11:20.308Z,3.00
2018-06-01T12:13:47.827Z,2.50
2018-06-01T12:16:15.400Z,3.12
2018-06-01T12:18:42.922Z,2.90
2018-06-01T12:21:10.485Z,2.25
2018-06-01T12:23:38.939Z,2.70
2018-06-01T12:26:06.496Z,2.67
2018-06-01T12:28:34.035Z,2.70
2018-06-01T12:31:01.584Z,2.33
2018-06-01T12:33:29.117Z,1.98
2018-06-01T12:35:56.680Z,1.92
2018-06-01T12:38:24.351Z,2.10
2018-06-01T12:40:51.904Z,1.80
2018-06-01T12:43:19.452Z,1.80
2018-06-01T12:45:47.014Z,1.75
2018-06-01T12:48:14.646Z,1.85
2018-06-01T12:50:42.183Z,1.73
2018-06-01T12:53:09.725Z,2.33
2018-06-01T12:55:37.269Z,1.80
2018-06-01T12:58:05.784Z,1.77
2018-06-01T13:00:33.419Z,1.90
2018-06-01T13:03:00.944Z,1.98
2018-06-01T13:05:29.297Z,1.87
2018-06-01T13:07:56.863Z,1.85
2018-06-01T13:10:24.459Z,1.65
2018-06-01T13:12:52.004Z,2.08
2018-06-01T13:15:20.320Z,1.80
2018-06-01T13:17:47.896Z,1.60
2018-06-01T13:20:15.485Z,2.20
2018-06-01T13:22:43.038Z,2.35
2018-06-01T13:25:10.596Z,2.60
2018-06-01T13:27:38.785Z,2.42
2018-06-01T13:30:07.082Z,2.35
2018-06-01T13:32:34.634Z,2.37
2018-06-01T13:35:02.943Z,2.42
2018-06-01T13:37:30.492Z,2.53
2018-06-01T13:39:58.029Z,2.80
2018-06-01T13:42:26.365Z,3.00
2018-06-01T13:44:53.899Z,3.05
2018-06-01T13:47:21.472Z,3.05
2018-06-01T13:49:49.043Z,3.20
2018-06-01T13:52:17.394Z,3.47
2018-06-01T13:54:44.929Z,3.30
2018-06-01T13:57:13.242Z,2.70
2018-06-01T13:59:40.781Z,2.67
2018-06-01T14:02:08.350Z,3.08
2018-06-01T14:04:35.891Z,2.97
2018-06-01T14:07:04.222Z,2.92
2018-06-01T14:09:31.763Z,3.20
2018-06-01T14:11:59.382Z,3.05
2018-06-01T14:14:27.682Z,3.17
2018-06-01T14:16:55.225Z,2.62
2018-06-01T14:19:23.566Z,3.30
2018-06-01T14:21:51.106Z,3.28
2018-06-01T14:24:18.635Z,3.10
2018-06-01T14:26:46.164Z,3.42
2018-06-01T14:29:13.748Z,3.30
2018-06-01T14:31:42.034Z,3.30
2018-06-01T14:34:09.593Z,3.00
2018-06-01T14:36:37.140Z,3.10
2018-06-01T14:39:05.662Z,3.33
2018-06-01T14:41:33.231Z,2.50
2018-06-01T14:44:00.882Z,3.87
2018-06-01T14:46:28.418Z,3.00
2018-06-01T14:48:56.736Z,3.22
2018-06-01T14:51:24.339Z,3.25
2018-06-01T14:53:51.948Z,3.08
2018-06-01T14:56:19.500Z,3.10
2018-06-01T14:58:47.053Z,3.10
2018-06-01T15:01:14.633Z,2.50
2018-06-01T15:03:42.187Z,2.37
2018-06-01T15:06:09.757Z,2.78
2018-06-01T15:08:37.315Z,2.60
2018-06-01T15:11:04.847Z,2.35
2018-06-01T15:13:32.418Z,2.70
2018-06-01T15:15:59.946Z,2.58
2018-06-01T15:18:28.267Z,2.55
2018-06-01T15:20:56.134Z,2.97
2018-06-01T15:23:23.682Z,2.53
2018-06-01T15:25:51.206Z,2.50
2018-06-01T15:28:19.639Z,2.58
2018-06-01T15:30:47.172Z,2.55
2018-06-01T15:33:14.796Z,2.50
2018-06-01T15:35:42.308Z,2.20
2018-06-01T15:38:09.886Z,2.50
2018-06-01T15:40:37.412Z,2.22
2018-06-01T15:43:05.284Z,2.50
2018-06-01T15:45:32.839Z,2.05
2018-06-01T15:48:01.157Z,2.42
2018-06-01T15:50:28.695Z,2.45
2018-06-01T15:52:56.225Z,3.12
2018-06-01T15:55:24.539Z,2.72
2018-06-01T15:57:52.069Z,3.35
2018-06-01T16:00:20.427Z,2.78
2018-06-01T16:02:47.955Z,2.37
2018-06-01T16:05:16.281Z,2.40
2018-06-01T16:07:44.566Z,2.35
2018-06-01T16:10:12.885Z,2.80
2018-06-01T16:12:40.465Z,2.67
2018-06-01T16:15:08.005Z,3.10
2018-06-01T16:17:35.545Z,3.33
2018-06-01T16:20:03.137Z,2.90
2018-06-01T16:22:30.667Z,3.10
2018-06-01T16:24:58.246Z,3.22
2018-06-01T16:27:25.792Z,3.00
2018-06-01T16:29:53.333Z,3.78
2018-06-01T16:32:20.857Z,3.28
2018-06-01T16:34:48.413Z,3.22
2018-06-01T16:37:15.955Z,3.67
2018-06-01T16:39:43.506Z,4.53
2018-06-01T16:42:11.034Z,4.00
2018-06-01T16:44:38.603Z,3.90
2018-06-01T16:47:06.179Z,4.62
2018-06-01T16:49:33.741Z,4.53
2018-06-01T16:52:01.282Z,5.07
2018-06-01T16:54:28.852Z,5.68
2018-06-01T16:56:56.414Z,4.82
2018-06-01T16:59:24.001Z,6.60
2018-06-01T17:01:51.581Z,7.60
2018-06-01T17:04:21.128Z,6.43
2018-06-01T17:06:48.683Z,6.75
2018-06-01T17:09:16.267Z,6.40
2018-06-01T17:11:43.834Z,7.40
2018-06-01T17:14:11.385Z,6.47
2018-06-01T17:16:38.948Z,6.62
2018-06-01T17:19:06.499Z,5.73
2018-06-01T17:21:34.057Z,5.03
2018-06-01T17:24:01.615Z,5.70
2018-06-01T17:26:29.228Z,6.13
2018-06-01T17:29:00.570Z,6.77
2018-06-01T17:31:28.164Z,7.00
2018-06-01T17:33:56.466Z,6.40
2018-06-01T17:36:24.055Z,6.27
2018-06-01T17:38:52.402Z,6.80
2018-06-01T17:41:38.210Z,6.70
2018-06-01T17:44:13.207Z,7.03
2018-06-01T17:46:40.818Z,6.90
2018-06-01T17:49:08.459Z,6.43
2018-06-01T17:51:37.091Z,6.70
2018-06-01T17:54:04.656Z,6.23
2018-06-01T17:56:32.248Z,6.60
2018-06-01T17:58:59.800Z,7.37
2018-06-01T18:01:28.137Z,6.10
2018-06-01T18:03:55.669Z,6.83
2018-06-01T18:06:23.260Z,7.00
2018-06-01T18:08:50.817Z,7.47
2018-06-01T18:11:18.392Z,7.37
2018-06-01T18:13:45.944Z,7.43
2018-06-01T18:16:13.538Z,7.53
2018-06-01T18:18:41.307Z,8.83
2018-06-01T18:21:09.685Z,8.40
2018-06-01T18:23:37.405Z,8.37
2018-06-01T18:26:04.962Z,8.33
2018-06-01T18:28:32.575Z,8.33
2018-06-01T18:31:01.827Z,8.67
2018-06-01T18:33:29.403Z,9.23
2018-06-01T18:35:56.972Z,9.00
2018-06-01T18:38:24.531Z,8.53
2018-06-01T18:40:52.148Z,9.10
2018-06-01T18:43:19.745Z,8.73
2018-06-01T18:45:47.324Z,8.77
2018-06-01T18:48:14.931Z,9.03
2018-06-01T18:50:44.424Z,9.43
2018-06-01T18:53:12.170Z,8.13
2018-06-01T18:55:43.553Z,8.83
2018-06-01T18:58:16.749Z,8.30
2018-06-01T19:00:44.310Z,8.97
2018-06-01T19:03:11.898Z,8.80
2018-06-01T19:05:39.479Z,7.97
2018-06-01T19:08:07.055Z,8.80
2018-06-01T19:10:36.608Z,8.97
2018-06-01T19:13:04.473Z,8.30
2018-06-01T19:15:32.753Z,8.40
2018-06-01T19:18:00.315Z,7.68
2018-06-01T19:20:28.871Z,7.53
2018-06-01T19:22:56.477Z,6.63
2018-06-01T19:25:24.036Z,7.00
2018-06-01T19:27:51.608Z,7.40
2018-06-01T19:30:19.160Z,7.07
2018-06-01T19:32:46.723Z,6.43
2018-06-01T19:35:14.348Z,7.20
2018-06-01T19:37:41.982Z,6.30
2018-06-01T19:40:10.383Z,6.77
2018-06-01T19:42:37.941Z,5.67
2018-06-01T19:45:05.518Z,6.40
2018-06-01T19:47:33.149Z,6.00
2018-06-01T19:50:01.486Z,6.12
2018-06-01T19:52:29.036Z,5.73
2018-06-01T19:54:56.610Z,5.77
2018-06-01T19:57:24.153Z,6.10
2018-06-01T19:59:51.698Z,5.70
2018-06-01T20:02:19.243Z,6.10
2018-06-01T20:04:47.609Z,18.60
2018-06-01T20:07:16.839Z,6.43
2018-06-01T20:09:44.559Z,5.40
2018-06-01T20:12:12.896Z,5.80
2018-06-01T20:14:40.489Z,5.80
2018-06-01T20:17:09.000Z,4.63
2018-06-01T20:19:36.602Z,5.87
2018-06-01T20:22:04.601Z,5.17
2018-06-01T20:24:32.152Z,5.07
2018-06-01T20:27:00.479Z,6.03
2018-06-01T20:29:28.045Z,4.90
2018-06-01T20:31:56.373Z,5.20
2018-06-01T20:34:23.964Z,6.40
2018-06-01T20:36:51.516Z,4.83
2018-06-01T20:39:19.095Z,5.50
2018-06-01T20:41:46.655Z,5.63
2018-06-01T20:44:14.987Z,5.32
2018-06-01T20:46:42.549Z,5.13
2018-06-01T20:49:10.149Z,5.27
2018-06-01T20:51:37.840Z,5.32
2018-06-01T20:54:05.442Z,6.57
2018-06-01T20:56:33.017Z,5.43
2018-06-01T20:59:00.644Z,5.90
2018-06-01T21:01:28.185Z,7.00
2018-06-01T21:03:55.789Z,5.60
2018-06-01T21:06:23.386Z,6.53
2018-06-01T21:08:51.007Z,6.83
2018-06-01T21:11:18.555Z,7.32
2018-06-01T21:13:46.156Z,8.20
2018-06-01T21:16:13.721Z,7.67
2018-06-01T21:18:42.046Z,7.47
2018-06-01T21:21:09.696Z,7.43
2018-06-01T21:23:38.003Z,7.20
2018-06-01T21:26:05.576Z,7.57
2018-06-01T21:28:33.133Z,7.55
2018-06-01T21:31:00.792Z,8.00
2018-06-01T21:33:28.356Z,7.63
2018-06-01T21:35:55.926Z,8.10
2018-06-01T21:38:23.624Z,9.07
2018-06-01T21:40:51.183Z,8.40
2018-06-01T21:43:19.493Z,8.60
2018-06-01T21:45:47.074Z,9.70
2018-06-01T21:48:14.635Z,9.07
2018-06-01T21:50:42.244Z,10.67
2018-06-01T21:53:09.841Z,10.50
2018-06-01T21:55:37.486Z,10.25
2018-06-01T22:00:09.047Z,9.73
2018-06-01T22:02:36.592Z,10.00
2018-06-01T22:05:04.242Z,10.55
2018-06-01T22:07:32.602Z,9.93
2018-06-01T22:10:00.169Z,10.77
2018-06-01T22:12:27.752Z,10.63
2018-06-01T22:14:55.294Z,11.13
2018-06-01T22:17:22.869Z,10.27
2018-06-01T22:19:51.195Z,10.67
2018-06-01T22:22:18.762Z,8.50
2018-06-01T22:24:46.323Z,8.43
2018-06-01T22:27:13.899Z,8.80
2018-06-01T22:29:41.479Z,9.03
2018-06-01T22:32:09.071Z,9.07
2018-06-01T22:34:36.617Z,8.87
2018-06-01T22:37:04.949Z,9.63
2018-06-01T22:39:32.532Z,9.73
2018-06-01T22:42:00.880Z,10.37
2018-06-01T22:44:28.432Z,10.00
2018-06-01T22:46:56.007Z,10.00
2018-06-01T22:49:23.566Z,10.67
2018-06-01T22:51:51.149Z,10.33
2018-06-01T22:54:18.734Z,10.50
2018-06-01T22:56:47.079Z,11.10
2018-06-01T22:59:15.620Z,11.10
2018-06-01T23:01:43.236Z,11.93
2018-06-01T23:04:10.805Z,13.20
2018-06-01T23:06:39.158Z,12.20
2018-06-01T23:09:06.712Z,11.67
2018-06-01T23:11:34.890Z,11.50
2018-06-01T23:14:02.449Z,11.60
2018-06-01T23:16:30.069Z,11.60
2018-06-01T23:18:57.629Z,12.27
2018-06-01T23:21:25.192Z,12.30
2018-06-01T23:23:52.760Z,12.67
2018-06-01T23:26:20.937Z,12.27
2018-06-01T23:28:48.492Z,12.43
2018-06-01T23:31:16.060Z,12.17
2018-06-01T23:33:43.628Z,12.63
2018-06-01T23:36:11.177Z,11.67
2018-06-01T23:38:38.753Z,11.37
2018-06-01T23:41:06.335Z,12.33
2018-06-01T23:43:33.909Z,13.13
2018-06-01T23:46:01.434Z,12.13
2018-06-01T23:48:29.046Z,10.77
2018-06-01T23:50:57.342Z,11.80
2018-06-01T23:53:24.915Z,10.67
2018-06-01T23:55:52.463Z,11.20
2018-06-01T23:58:20.048Z,12.07
